sensor_id;sensor_type;location;lat;lon;timestamp;pressure;altitude;pressure_sealevel;temperature;humidity
56558;BME280;43358;50.356;12.456;2023-05-09T00:18:20;96065;;;12.5;70.2
56558;BME280;43358;50.356;12.456;2023-05-09T00:18:20;96064;;;12.6;69.8
56558;BME280;43358;50.356;12.456;2023-05-09T04:02:18;96023;;;7.8;80.8
56558;BME280;43358;50.356;12.456;2023-05-09T04:02:18;96021;;;7.8;80.1
56558;BME280;43358;50.356;12.456;2023-05-09T04:02:37;96024;;;5.2;85.7
56558;BME280;43358;50.356;12.456;2023-05-09T04:04:02;95935;;;5.2;85.7
56558;BME280;43358;50.356;12.456;2023-05-09T04:04:37;95938;;;5.1;85.6
56558;BME280;43358;50.356;12.456;2023-05-09T04:05:37;95940;;;5.2;85.3
56558;BME280;43358;50.356;12.456;2023-05-09T04:06:37;95938;;;5.2;85.2
56558;BME280;43358;50.356;12.456;2023-05-09T04:07:37;95938;;;5.2;85
56558;BME280;43358;50.356;12.456;2023-05-09T04:08:37;95941;;;5.2;84.9
56558;BME280;43358;50.356;12.456;2023-05-09T04:09:37;95943;;;5.2;85
56558;BME280;43358;50.356;12.456;2023-05-09T04:11:01;95944;;;5.2;85.3
56558;BME280;43358;50.356;12.456;2023-05-09T04:12:03;95946;;;5.2;85.6
56558;BME280;43358;50.356;12.456;2023-05-09T04:13:05;95948;;;5.2;85.7
56558;BME280;43358;50.356;12.456;2023-05-09T04:14:07;95948;;;5.2;85.7
56558;BME280;43358;50.356;12.456;2023-05-09T06:06:56;95948;;;5.2;85.3
56558;BME280;43358;50.356;12.456;2023-05-09T06:06:57;95943;;;5.2;85.3
56558;BME280;43358;50.356;12.456;2023-05-09T06:12:29;95869;;;8.6;77.5
56558;BME280;43358;50.356;12.456;2023-05-09T06:12:29;95868;;;8.5;78.1
56558;BME280;43358;50.356;12.456;2023-05-09T06:42:13;95862;;;9;75.5
56558;BME280;43358;50.356;12.456;2023-05-09T06:42:13;95863;;;9;75.5
56558;BME280;43358;50.356;12.456;2023-05-09T06:44:00;95842;;;10.7;68.7
56558;BME280;43358;50.356;12.456;2023-05-09T06:44:37;95835;;;10.7;68.8
56558;BME280;43358;50.356;12.456;2023-05-09T06:55:41;95836;;;10.7;70
56558;BME280;43358;50.356;12.456;2023-05-09T06:55:42;95831;;;10.7;70
56558;BME280;43358;50.356;12.456;2023-05-09T06:56:37;95824;;;11.3;70.1
56558;BME280;43358;50.356;12.456;2023-05-09T07:08:52;95820;;;11.4;67.8
56558;BME280;43358;50.356;12.456;2023-05-09T07:08:53;95817;;;11.4;67
56558;BME280;43358;50.356;12.456;2023-05-09T07:09:37;95798;;;12.1;67.2
56558;BME280;43358;50.356;12.456;2023-05-09T07:10:49;95797;;;12.2;66.5
56558;BME280;43358;50.356;12.456;2023-05-09T07:12:21;95804;;;12.2;66.4
56558;BME280;43358;50.356;12.456;2023-05-09T07:16:49;95804;;;12.3;70.5
56558;BME280;43358;50.356;12.456;2023-05-09T07:16:50;95798;;;12.4;67
56558;BME280;43358;50.356;12.456;2023-05-09T07:17:37;95791;;;12.7;63.4
56558;BME280;43358;50.356;12.456;2023-05-09T07:18:37;95791;;;12.7;67.3
56558;BME280;43358;50.356;12.456;2023-05-09T07:19:54;95789;;;12.7;65.9
56558;BME280;43358;50.356;12.456;2023-05-09T07:20:37;95786;;;12.8;64.9
56558;BME280;43358;50.356;12.456;2023-05-09T07:21:37;95789;;;12.8;67.3
56558;BME280;43358;50.356;12.456;2023-05-09T10:00:18;95791;;;12.9;66.1
56558;BME280;43358;50.356;12.456;2023-05-09T10:00:24;95793;;;13;64.5
56558;BME280;43358;50.356;12.456;2023-05-09T10:00:37;95612;;;18;54.3
56558;BME280;43358;50.356;12.456;2023-05-09T12:21:05;95575;;;18.7;51.2
56558;BME280;43358;50.356;12.456;2023-05-09T15:56:35;95394;;;19.7;51.6
56558;BME280;43358;50.356;12.456;2023-05-09T15:57:46;95134;;;19;50.5
56558;BME280;43358;50.356;12.456;2023-05-09T15:59:51;95132;;;19;49.8
56558;BME280;43358;50.356;12.456;2023-05-09T16:00:42;95129;;;19;49.7
56558;BME280;43358;50.356;12.456;2023-05-09T16:02:51;95129;;;19;50.8
56558;BME280;43358;50.356;12.456;2023-05-09T16:05:38;95123;;;18.9;52.8
56558;BME280;43358;50.356;12.456;2023-05-09T16:12:38;95111;;;18.8;52.5
56558;BME280;43358;50.356;12.456;2023-05-09T16:13:38;95107;;;18.8;51.6
56558;BME280;43358;50.356;12.456;2023-05-09T16:16:38;95104;;;18.8;53
56558;BME280;43358;50.356;12.456;2023-05-09T16:18:38;95101;;;18.7;51.9
56558;BME280;43358;50.356;12.456;2023-05-09T16:21:38;95098;;;18.7;51.5
56558;BME280;43358;50.356;12.456;2023-05-09T16:23:55;95090;;;18.7;53.2
56558;BME280;43358;50.356;12.456;2023-05-09T16:24:57;95086;;;18.7;52.8
56558;BME280;43358;50.356;12.456;2023-05-09T16:25:59;95085;;;18.6;53.5
56558;BME280;43358;50.356;12.456;2023-05-09T16:28:38;95075;;;18.6;53.5
56558;BME280;43358;50.356;12.456;2023-05-09T16:29:38;95071;;;18.5;54.4
56558;BME280;43358;50.356;12.456;2023-05-09T16:31:15;95069;;;18.6;53.4
56558;BME280;43358;50.356;12.456;2023-05-09T16:36:09;95063;;;18.5;54.5
56558;BME280;43358;50.356;12.456;2023-05-09T16:37:38;95062;;;18.5;52.6
56558;BME280;43358;50.356;12.456;2023-05-09T16:39:38;95061;;;18.5;52.6
56558;BME280;43358;50.356;12.456;2023-05-09T16:40:38;95066;;;18.5;51.8
56558;BME280;43358;50.356;12.456;2023-05-09T16:41:38;95059;;;18.5;54.5
56558;BME280;43358;50.356;12.456;2023-05-09T16:43:26;95061;;;18.5;52.5
56558;BME280;43358;50.356;12.456;2023-05-09T16:44:28;95062;;;18.4;53
56558;BME280;43358;50.356;12.456;2023-05-09T16:45:30;95059;;;18.4;53.4
56558;BME280;43358;50.356;12.456;2023-05-09T16:46:40;95062;;;18.3;53
56558;BME280;43358;50.356;12.456;2023-05-09T16:47:41;95058;;;18.3;53.1
56558;BME280;43358;50.356;12.456;2023-05-09T16:48:43;95057;;;18.3;53.7
56558;BME280;43358;50.356;12.456;2023-05-09T16:49:45;95052;;;18.3;52.9
56558;BME280;43358;50.356;12.456;2023-05-09T16:52:38;95046;;;18.4;52.9
56558;BME280;43358;50.356;12.456;2023-05-09T16:53:38;95039;;;18.4;53.4
56558;BME280;43358;50.356;12.456;2023-05-09T16:54:38;95040;;;18.4;53.3
56558;BME280;43358;50.356;12.456;2023-05-09T16:55:38;95036;;;18.4;53
56558;BME280;43358;50.356;12.456;2023-05-09T16:57:00;95028;;;18.5;53.9
56558;BME280;43358;50.356;12.456;2023-05-09T16:58:01;95038;;;18.5;55.1
56558;BME280;43358;50.356;12.456;2023-05-09T16:59:04;95030;;;18.5;54.3
56558;BME280;43358;50.356;12.456;2023-05-09T17:00:08;95038;;;18.6;54.9
56558;BME280;43358;50.356;12.456;2023-05-09T17:01:13;95034;;;18.7;54.9
56558;BME280;43358;50.356;12.456;2023-05-09T17:02:15;95039;;;18.7;54.3
56558;BME280;43358;50.356;12.456;2023-05-09T17:03:26;95037;;;18.8;54.8
56558;BME280;43358;50.356;12.456;2023-05-09T17:05:23;95038;;;19;53.6
56558;BME280;43358;50.356;12.456;2023-05-09T17:06:27;95031;;;19.1;53.2
56558;BME280;43358;50.356;12.456;2023-05-09T17:07:31;95035;;;19.1;52.9
56558;BME280;43358;50.356;12.456;2023-05-09T17:08:54;95033;;;19.2;52.8
56558;BME280;43358;50.356;12.456;2023-05-09T17:10:54;95029;;;19.3;52.4
56558;BME280;43358;50.356;12.456;2023-05-09T17:11:54;95028;;;19.3;54.2
56558;BME280;43358;50.356;12.456;2023-05-09T17:12:54;95030;;;19.3;52.2
56558;BME280;43358;50.356;12.456;2023-05-09T17:13:54;95028;;;19.3;51.3
56558;BME280;43358;50.356;12.456;2023-05-09T17:14:55;95028;;;19.3;52.3
56558;BME280;43358;50.356;12.456;2023-05-09T17:16:02;95028;;;19.3;52.6
56558;BME280;43358;50.356;12.456;2023-05-09T17:17:07;95026;;;19.3;51.8
56558;BME280;43358;50.356;12.456;2023-05-09T17:19:07;95023;;;19.3;51.5
56558;BME280;43358;50.356;12.456;2023-05-09T17:20:21;95025;;;19.3;52.6
56558;BME280;43358;50.356;12.456;2023-05-09T17:21:54;95019;;;19.2;52.1
56558;BME280;43358;50.356;12.456;2023-05-09T17:22:54;95021;;;19.2;53.2
56558;BME280;43358;50.356;12.456;2023-05-09T17:24:57;95027;;;19.1;51.6
56558;BME280;43358;50.356;12.456;2023-05-09T17:25:54;95023;;;19.1;51.9
56558;BME280;43358;50.356;12.456;2023-05-09T17:27:54;95020;;;19.1;52.2
56558;BME280;43358;50.356;12.456;2023-05-09T17:30:54;95016;;;19.1;52.4
56558;BME280;43358;50.356;12.456;2023-05-09T17:31:57;95014;;;19.1;53.6
56558;BME280;43358;50.356;12.456;2023-05-09T17:33:02;95011;;;19;52.2
56558;BME280;43358;50.356;12.456;2023-05-09T17:34:11;95015;;;18.9;52.8
56558;BME280;43358;50.356;12.456;2023-05-09T17:37:28;95006;;;18.8;55.1
56558;BME280;43358;50.356;12.456;2023-05-09T17:39:31;95004;;;18.6;54.2
56558;BME280;43358;50.356;12.456;2023-05-09T17:40:35;95001;;;18.6;53.2
56558;BME280;43358;50.356;12.456;2023-05-09T17:41:38;94998;;;18.5;55.3
56558;BME280;43358;50.356;12.456;2023-05-09T17:42:40;94995;;;18.4;56.5
56558;BME280;43358;50.356;12.456;2023-05-09T17:44:44;94999;;;18.3;56.1
56558;BME280;43358;50.356;12.456;2023-05-09T17:45:46;94998;;;18.2;54.3
56558;BME280;43358;50.356;12.456;2023-05-09T17:46:48;94995;;;18.1;54.6
56558;BME280;43358;50.356;12.456;2023-05-09T17:47:51;94995;;;18;54.3
56558;BME280;43358;50.356;12.456;2023-05-09T17:48:53;94993;;;18;54.4
56558;BME280;43358;50.356;12.456;2023-05-09T17:49:55;94991;;;17.8;57.6
56558;BME280;43358;50.356;12.456;2023-05-09T17:50:57;95003;;;17.8;57.5
56558;BME280;43358;50.356;12.456;2023-05-09T17:51:59;94992;;;17.7;56.1
56558;BME280;43358;50.356;12.456;2023-05-09T17:53:02;94997;;;17.7;54.9
56558;BME280;43358;50.356;12.456;2023-05-09T17:54:04;94989;;;17.6;55.8
56558;BME280;43358;50.356;12.456;2023-05-09T17:55:06;94987;;;17.5;55.3
56558;BME280;43358;50.356;12.456;2023-05-09T17:56:08;94985;;;17.5;55.2
56558;BME280;43358;50.356;12.456;2023-05-09T17:57:11;94984;;;17.4;55.9
56558;BME280;43358;50.356;12.456;2023-05-09T17:58:13;94991;;;17.4;56.2
56558;BME280;43358;50.356;12.456;2023-05-09T17:59:15;94994;;;17.3;55.7
56558;BME280;43358;50.356;12.456;2023-05-09T18:00:29;94983;;;17.3;57.5
56558;BME280;43358;50.356;12.456;2023-05-09T18:01:19;94988;;;17.2;55.4
56558;BME280;43358;50.356;12.456;2023-05-09T18:02:22;94985;;;17.1;56.5
56558;BME280;43358;50.356;12.456;2023-05-09T18:03:24;94988;;;17;56.9
56558;BME280;43358;50.356;12.456;2023-05-09T18:04:26;94990;;;17;58.6
56558;BME280;43358;50.356;12.456;2023-05-09T18:05:31;94990;;;16.9;56.7
56558;BME280;43358;50.356;12.456;2023-05-09T18:07:32;94992;;;16.8;56.4
56558;BME280;43358;50.356;12.456;2023-05-09T18:08:34;94989;;;16.8;57.3
56558;BME280;43358;50.356;12.456;2023-05-09T18:09:36;94985;;;16.7;58.8
56558;BME280;43358;50.356;12.456;2023-05-09T18:10:38;94986;;;16.6;59.2
56558;BME280;43358;50.356;12.456;2023-05-09T18:11:45;94989;;;16.6;57.4
56558;BME280;43358;50.356;12.456;2023-05-09T18:12:54;94986;;;16.5;57.6
56558;BME280;43358;50.356;12.456;2023-05-09T18:13:54;94993;;;16.4;57.7
56558;BME280;43358;50.356;12.456;2023-05-09T18:15:54;94987;;;16.4;59.7
56558;BME280;43358;50.356;12.456;2023-05-09T18:18:54;94987;;;16.2;59.6
56558;BME280;43358;50.356;12.456;2023-05-09T18:19:54;94993;;;16.2;60.2
56558;BME280;43358;50.356;12.456;2023-05-09T18:20:54;94995;;;16.2;61.2
56558;BME280;43358;50.356;12.456;2023-05-09T18:21:54;94990;;;16.2;59.6
56558;BME280;43358;50.356;12.456;2023-05-09T18:23:54;94994;;;16.1;59.7
56558;BME280;43358;50.356;12.456;2023-05-09T18:24:54;94985;;;16.1;59
56558;BME280;43358;50.356;12.456;2023-05-09T18:25:54;94989;;;16.1;58.4
56558;BME280;43358;50.356;12.456;2023-05-09T18:26:54;94987;;;16;58.8
56558;BME280;43358;50.356;12.456;2023-05-09T18:27:54;94978;;;16;58.5
56558;BME280;43358;50.356;12.456;2023-05-09T18:28:54;94987;;;16;58.5
56558;BME280;43358;50.356;12.456;2023-05-09T18:29:54;94989;;;16;60.6
56558;BME280;43358;50.356;12.456;2023-05-09T18:30:56;94986;;;15.9;61.8
56558;BME280;43358;50.356;12.456;2023-05-09T18:31:55;94995;;;15.9;60.4
56558;BME280;43358;50.356;12.456;2023-05-09T18:32:54;94989;;;15.9;60.3
56558;BME280;43358;50.356;12.456;2023-05-09T18:33:54;94995;;;15.9;58.4
56558;BME280;43358;50.356;12.456;2023-05-09T18:34:54;94992;;;15.8;60.1
56558;BME280;43358;50.356;12.456;2023-05-09T18:35:54;94992;;;15.8;62
56558;BME280;43358;50.356;12.456;2023-05-09T18:36:55;94995;;;15.8;58.5
56558;BME280;43358;50.356;12.456;2023-05-09T18:37:54;94992;;;15.7;59.4
56558;BME280;43358;50.356;12.456;2023-05-09T18:38:54;94991;;;15.7;60.5
56558;BME280;43358;50.356;12.456;2023-05-09T18:39:54;94991;;;15.7;60.9
56558;BME280;43358;50.356;12.456;2023-05-09T18:40:54;94993;;;15.7;61.4
56558;BME280;43358;50.356;12.456;2023-05-09T18:41:54;94987;;;15.6;59.9
56558;BME280;43358;50.356;12.456;2023-05-09T18:44:01;94994;;;15.6;60.9
56558;BME280;43358;50.356;12.456;2023-05-09T18:45:53;94994;;;15.5;59.9
56558;BME280;43358;50.356;12.456;2023-05-09T18:47:05;94992;;;15.4;62
56558;BME280;43358;50.356;12.456;2023-05-09T18:50:02;94995;;;15.4;63.3
56558;BME280;43358;50.356;12.456;2023-05-09T18:51:15;94995;;;15.3;62
56558;BME280;43358;50.356;12.456;2023-05-09T18:52:58;94997;;;15.3;63
56558;BME280;43358;50.356;12.456;2023-05-09T18:54:11;94995;;;15.2;62.6
56558;BME280;43358;50.356;12.456;2023-05-09T18:55:13;94997;;;15.2;62.2
56558;BME280;43358;50.356;12.456;2023-05-09T18:56:16;94993;;;15.2;62.9
56558;BME280;43358;50.356;12.456;2023-05-09T18:57:18;94997;;;15.2;62.5
56558;BME280;43358;50.356;12.456;2023-05-09T18:58:19;94994;;;15.2;62.3
56558;BME280;43358;50.356;12.456;2023-05-09T18:59:21;94993;;;15.1;61.9
56558;BME280;43358;50.356;12.456;2023-05-09T19:00:24;94995;;;15.1;62.9
56558;BME280;43358;50.356;12.456;2023-05-09T19:01:30;94995;;;15.2;61.6
56558;BME280;43358;50.356;12.456;2023-05-09T19:02:28;94998;;;15.1;61.4
56558;BME280;43358;50.356;12.456;2023-05-09T19:03:30;94992;;;15.1;62.2
56558;BME280;43358;50.356;12.456;2023-05-09T19:04:33;94992;;;15.1;62.6
56558;BME280;43358;50.356;12.456;2023-05-09T19:05:54;94990;;;15.1;62.1
56558;BME280;43358;50.356;12.456;2023-05-09T19:06:54;94994;;;15;62.4
56558;BME280;43358;50.356;12.456;2023-05-09T19:10:04;94990;;;15;62.9
56558;BME280;43358;50.356;12.456;2023-05-09T19:11:54;94990;;;15;62.9
56558;BME280;43358;50.356;12.456;2023-05-09T19:12:59;94991;;;15;62.2
56558;BME280;43358;50.356;12.456;2023-05-09T19:13:54;94985;;;14.9;65.3
56558;BME280;43358;50.356;12.456;2023-05-09T19:14:54;94986;;;14.9;63.5
56558;BME280;43358;50.356;12.456;2023-05-09T19:15:55;94988;;;14.9;63
56558;BME280;43358;50.356;12.456;2023-05-09T19:16:54;94985;;;14.8;62.8
56558;BME280;43358;50.356;12.456;2023-05-09T19:18:14;94981;;;14.8;64.7
56558;BME280;43358;50.356;12.456;2023-05-09T19:19:16;94993;;;14.8;63.5
56558;BME280;43358;50.356;12.456;2023-05-09T19:21:27;94989;;;14.7;64.7
56558;BME280;43358;50.356;12.456;2023-05-09T19:22:23;94995;;;14.7;63.9
56558;BME280;43358;50.356;12.456;2023-05-09T19:23:26;94987;;;14.7;64.5
56558;BME280;43358;50.356;12.456;2023-05-09T19:25:54;94988;;;14.6;64
56558;BME280;43358;50.356;12.456;2023-05-09T19:26:54;94977;;;14.6;62.9
56558;BME280;43358;50.356;12.456;2023-05-09T19:27:54;94985;;;14.6;62.2
56558;BME280;43358;50.356;12.456;2023-05-09T19:28:54;94992;;;14.5;62.8
56558;BME280;43358;50.356;12.456;2023-05-09T19:30:54;94992;;;14.5;62.5
56558;BME280;43358;50.356;12.456;2023-05-09T19:31:54;94986;;;14.5;63.2
56558;BME280;43358;50.356;12.456;2023-05-09T19:32:54;94986;;;14.5;62.8
56558;BME280;43358;50.356;12.456;2023-05-09T19:33:56;94990;;;14.5;63.1
56558;BME280;43358;50.356;12.456;2023-05-09T19:35:21;94982;;;14.5;64.5
56558;BME280;43358;50.356;12.456;2023-05-09T19:37:05;94983;;;14.5;63.6
56558;BME280;43358;50.356;12.456;2023-05-09T19:38:08;94983;;;14.4;63.3
56558;BME280;43358;50.356;12.456;2023-05-09T19:39:12;94980;;;14.4;63.4
56558;BME280;43358;50.356;12.456;2023-05-09T19:40:54;94978;;;14.4;64.7
56558;BME280;43358;50.356;12.456;2023-05-09T19:41:54;94986;;;14.4;63.6
56558;BME280;43358;50.356;12.456;2023-05-09T19:42:54;94982;;;14.4;63.3
56558;BME280;43358;50.356;12.456;2023-05-09T19:43:54;94987;;;14.3;64
56558;BME280;43358;50.356;12.456;2023-05-09T19:44:57;94987;;;14.3;65.2
56558;BME280;43358;50.356;12.456;2023-05-09T19:45:54;94986;;;14.3;65.1
56558;BME280;43358;50.356;12.456;2023-05-09T19:46:54;94987;;;14.3;65.3
56558;BME280;43358;50.356;12.456;2023-05-09T19:48:32;94986;;;14.3;64.8
56558;BME280;43358;50.356;12.456;2023-05-09T19:52:41;94988;;;14.2;64.7
56558;BME280;43358;50.356;12.456;2023-05-09T19:53:43;94988;;;14.2;63.9
56558;BME280;43358;50.356;12.456;2023-05-09T19:54:45;94990;;;14.2;63.8
56558;BME280;43358;50.356;12.456;2023-05-09T19:55:47;94993;;;14.2;63.8
56558;BME280;43358;50.356;12.456;2023-05-09T19:56:54;94982;;;14.2;64.7
56558;BME280;43358;50.356;12.456;2023-05-09T19:57:54;94983;;;14.2;65.5
56558;BME280;43358;50.356;12.456;2023-05-09T19:58:54;94988;;;14.2;64.2
56558;BME280;43358;50.356;12.456;2023-05-09T19:59:56;94988;;;14.2;64.5
56558;BME280;43358;50.356;12.456;2023-05-09T20:02:01;94991;;;14.1;64.9
56558;BME280;43358;50.356;12.456;2023-05-09T20:04:22;94984;;;14.1;65.3
56558;BME280;43358;50.356;12.456;2023-05-09T20:05:08;94986;;;14.1;64.9
56558;BME280;43358;50.356;12.456;2023-05-09T20:06:10;94993;;;14.1;65.6
56558;BME280;43358;50.356;12.456;2023-05-09T20:16:34;94979;;;14;65.7
56558;BME280;43358;50.356;12.456;2023-05-09T20:16:35;94981;;;14;65.8
56558;BME280;43358;50.356;12.456;2023-05-09T20:19:04;94982;;;14;65.6
56558;BME280;43358;50.356;12.456;2023-05-09T20:21:04;94981;;;13.9;65.9
56558;BME280;43358;50.356;12.456;2023-05-09T20:23:27;94985;;;13.9;65.2
56558;BME280;43358;50.356;12.456;2023-05-09T20:25:05;94989;;;13.9;65.1
56558;BME280;43358;50.356;12.456;2023-05-09T20:26:48;94985;;;13.8;65.7
56558;BME280;43358;50.356;12.456;2023-05-09T20:27:37;94982;;;13.8;65.9
56558;BME280;43358;50.356;12.456;2023-05-09T20:28:39;94978;;;13.8;65.2
56558;BME280;43358;50.356;12.456;2023-05-09T20:30:05;94982;;;13.8;65.4
56558;BME280;43358;50.356;12.456;2023-05-09T20:31:04;94980;;;13.8;64.9
56558;BME280;43358;50.356;12.456;2023-05-09T20:34:31;94984;;;13.7;65.2
56558;BME280;43358;50.356;12.456;2023-05-09T20:35:19;94983;;;13.7;65.5
56558;BME280;43358;50.356;12.456;2023-05-09T20:36:05;94979;;;13.7;65.9
56558;BME280;43358;50.356;12.456;2023-05-09T20:37:19;94977;;;13.6;66.3
56558;BME280;43358;50.356;12.456;2023-05-09T20:38:07;94980;;;13.6;66.7
56558;BME280;43358;50.356;12.456;2023-05-09T20:39:09;94980;;;13.6;66.6
56558;BME280;43358;50.356;12.456;2023-05-09T20:41:40;94981;;;13.5;66.5
56558;BME280;43358;50.356;12.456;2023-05-09T20:44:13;94971;;;13.6;66.9
56558;BME280;43358;50.356;12.456;2023-05-09T20:49:10;94970;;;13.5;66.3
56558;BME280;43358;50.356;12.456;2023-05-09T20:52:37;94968;;;13.5;66.9
56558;BME280;43358;50.356;12.456;2023-05-09T20:53:20;94970;;;13.4;66.2
56558;BME280;43358;50.356;12.456;2023-05-09T20:55:41;94968;;;13.4;68
56558;BME280;43358;50.356;12.456;2023-05-09T20:56:43;94967;;;13.4;68.2
56558;BME280;43358;50.356;12.456;2023-05-09T21:05:49;94967;;;13.4;68.1
56558;BME280;43358;50.356;12.456;2023-05-09T21:06:51;94968;;;13.3;67.3
56558;BME280;43358;50.356;12.456;2023-05-09T21:11:01;94969;;;13.3;66.4
56558;BME280;43358;50.356;12.456;2023-05-09T21:13:21;94970;;;13.1;67.8
56558;BME280;43358;50.356;12.456;2023-05-09T21:20:05;94971;;;13;68.1
56558;BME280;43358;50.356;12.456;2023-05-09T21:22:48;94969;;;13;68.6
56558;BME280;43358;50.356;12.456;2023-05-09T21:25:11;94975;;;13;67.5
56558;BME280;43358;50.356;12.456;2023-05-09T21:26:26;94971;;;13;68.1
56558;BME280;43358;50.356;12.456;2023-05-09T21:27:43;94963;;;13;68.3
56558;BME280;43358;50.356;12.456;2023-05-09T21:29:32;94971;;;13;68.7
56558;BME280;43358;50.356;12.456;2023-05-09T21:30:34;94973;;;13;68.2
56558;BME280;43358;50.356;12.456;2023-05-09T21:31:36;94974;;;12.9;69.3
56558;BME280;43358;50.356;12.456;2023-05-09T21:32:38;94964;;;12.9;68.3
56558;BME280;43358;50.356;12.456;2023-05-09T21:33:40;94967;;;12.9;68
56558;BME280;43358;50.356;12.456;2023-05-09T21:34:42;94972;;;12.9;69.1
56558;BME280;43358;50.356;12.456;2023-05-09T21:35:44;94969;;;12.9;69.6
56558;BME280;43358;50.356;12.456;2023-05-09T21:36:46;94972;;;12.9;68.8
56558;BME280;43358;50.356;12.456;2023-05-09T21:37:48;94968;;;12.9;68.5
56558;BME280;43358;50.356;12.456;2023-05-09T21:38:50;94970;;;12.9;68.8
56558;BME280;43358;50.356;12.456;2023-05-09T21:40:55;94972;;;12.8;68.4
56558;BME280;43358;50.356;12.456;2023-05-09T21:41:57;94973;;;12.8;68.8
56558;BME280;43358;50.356;12.456;2023-05-09T21:42:59;94975;;;12.8;68.7
56558;BME280;43358;50.356;12.456;2023-05-09T21:44:01;94975;;;12.7;68.4
56558;BME280;43358;50.356;12.456;2023-05-09T21:45:03;94972;;;12.7;68.4
56558;BME280;43358;50.356;12.456;2023-05-09T21:46:05;94974;;;12.7;68.9
56558;BME280;43358;50.356;12.456;2023-05-09T21:47:07;94968;;;12.7;69.3
56558;BME280;43358;50.356;12.456;2023-05-09T21:48:09;94970;;;12.7;68.3
56558;BME280;43358;50.356;12.456;2023-05-09T21:49:11;94968;;;12.7;68
56558;BME280;43358;50.356;12.456;2023-05-09T21:50:14;94970;;;12.7;69.7
56558;BME280;43358;50.356;12.456;2023-05-09T21:51:18;94971;;;12.7;68.8
56558;BME280;43358;50.356;12.456;2023-05-09T21:52:21;94971;;;12.6;69.8
56558;BME280;43358;50.356;12.456;2023-05-09T21:53:23;94962;;;12.6;69.9
56558;BME280;43358;50.356;12.456;2023-05-09T21:54:25;94963;;;12.6;70.5
56558;BME280;43358;50.356;12.456;2023-05-09T21:55:41;94965;;;12.6;69.8
56558;BME280;43358;50.356;12.456;2023-05-09T21:56:43;94966;;;12.6;68.9
56558;BME280;43358;50.356;12.456;2023-05-09T21:58:05;94960;;;12.6;69.3
56558;BME280;43358;50.356;12.456;2023-05-09T21:59:05;94958;;;12.6;68.8
56558;BME280;43358;50.356;12.456;2023-05-09T22:00:05;94955;;;12.6;68.9
56558;BME280;43358;50.356;12.456;2023-05-09T22:01:05;94951;;;12.6;68.8
56558;BME280;43358;50.356;12.456;2023-05-09T22:02:05;94953;;;12.6;69.9
56558;BME280;43358;50.356;12.456;2023-05-09T22:03:05;94951;;;12.5;70.3
56558;BME280;43358;50.356;12.456;2023-05-09T22:04:05;94956;;;12.5;70.8
56558;BME280;43358;50.356;12.456;2023-05-09T22:05:05;94956;;;12.5;69.8
56558;BME280;43358;50.356;12.456;2023-05-09T22:06:05;94955;;;12.5;70
56558;BME280;43358;50.356;12.456;2023-05-09T22:08:06;94956;;;12.4;69.2
56558;BME280;43358;50.356;12.456;2023-05-09T22:09:08;94955;;;12.4;69.4
56558;BME280;43358;50.356;12.456;2023-05-09T22:10:10;94956;;;12.4;69.2
56558;BME280;43358;50.356;12.456;2023-05-09T22:11:12;94951;;;12.4;69.7
56558;BME280;43358;50.356;12.456;2023-05-09T22:12:18;94953;;;12.4;69.6
56558;BME280;43358;50.356;12.456;2023-05-09T22:13:20;94949;;;12.4;69.8
56558;BME280;43358;50.356;12.456;2023-05-09T22:14:22;94955;;;12.3;69.3
56558;BME280;43358;50.356;12.456;2023-05-09T22:15:24;94954;;;12.3;69.8
56558;BME280;43358;50.356;12.456;2023-05-09T22:16:26;94955;;;12.3;70.6
56558;BME280;43358;50.356;12.456;2023-05-09T22:18:30;94949;;;12.3;70.5
56558;BME280;43358;50.356;12.456;2023-05-09T22:19:32;94944;;;12.3;70.2
56558;BME280;43358;50.356;12.456;2023-05-09T22:20:34;94950;;;12.3;69.8
56558;BME280;43358;50.356;12.456;2023-05-09T22:21:36;94946;;;12.3;70
56558;BME280;43358;50.356;12.456;2023-05-09T22:22:39;94946;;;12.3;71
56558;BME280;43358;50.356;12.456;2023-05-09T22:23:41;94946;;;12.3;71.3
56558;BME280;43358;50.356;12.456;2023-05-09T22:24:43;94946;;;12.2;70.4
56558;BME280;43358;50.356;12.456;2023-05-09T22:25:45;94950;;;12.2;72.1
56558;BME280;43358;50.356;12.456;2023-05-09T22:27:05;94944;;;12.2;70.5
56558;BME280;43358;50.356;12.456;2023-05-09T22:28:05;94947;;;12.2;70.9
56558;BME280;43358;50.356;12.456;2023-05-09T22:29:05;94945;;;12.2;70.3
56558;BME280;43358;50.356;12.456;2023-05-09T22:31:05;94945;;;12.1;72.9
56558;BME280;43358;50.356;12.456;2023-05-09T22:32:05;94946;;;12.1;70.8
56558;BME280;43358;50.356;12.456;2023-05-09T22:33:05;94943;;;12.1;70.5
56558;BME280;43358;50.356;12.456;2023-05-09T22:34:05;94945;;;12.1;70.2
56558;BME280;43358;50.356;12.456;2023-05-09T22:35:05;94941;;;12.1;70.2
56558;BME280;43358;50.356;12.456;2023-05-09T22:36:06;94942;;;12.1;71.7
56558;BME280;43358;50.356;12.456;2023-05-09T22:37:08;94942;;;12;71.8
56558;BME280;43358;50.356;12.456;2023-05-09T22:38:10;94941;;;12;71.8
56558;BME280;43358;50.356;12.456;2023-05-09T22:40:14;94936;;;12;72.1
56558;BME280;43358;50.356;12.456;2023-05-09T22:41:17;94936;;;12;71.5
56558;BME280;43358;50.356;12.456;2023-05-09T22:42:20;94937;;;12;71
56558;BME280;43358;50.356;12.456;2023-05-09T22:43:22;94936;;;12;71.2
56558;BME280;43358;50.356;12.456;2023-05-09T22:44:24;94939;;;12;71.5
56558;BME280;43358;50.356;12.456;2023-05-09T22:45:26;94945;;;12;71.6
56558;BME280;43358;50.356;12.456;2023-05-09T22:46:28;94940;;;12;73
56558;BME280;43358;50.356;12.456;2023-05-09T22:47:30;94937;;;12;72
56558;BME280;43358;50.356;12.456;2023-05-09T22:48:32;94944;;;12;72.5
56558;BME280;43358;50.356;12.456;2023-05-09T22:49:34;94943;;;12;71.9
56558;BME280;43358;50.356;12.456;2023-05-09T22:50:36;94945;;;11.9;71.5
56558;BME280;43358;50.356;12.456;2023-05-09T22:51:38;94941;;;11.9;71.9
56558;BME280;43358;50.356;12.456;2023-05-09T22:52:40;94940;;;11.9;71.8
56558;BME280;43358;50.356;12.456;2023-05-09T22:53:42;94945;;;11.9;71.5
56558;BME280;43358;50.356;12.456;2023-05-09T22:54:44;94947;;;11.9;72
56558;BME280;43358;50.356;12.456;2023-05-09T22:58:05;94945;;;11.9;72.2
56558;BME280;43358;50.356;12.456;2023-05-09T22:59:07;94943;;;11.9;71.7